KSLH

Cheboygan County Airport

Cheboygan, Michigan, USA
METAR KSLH 191455Z AUTO 21008KT 10SM CLR M01/M03 A2969 RMK AO2 T10121039
Observed Flight Rules
Jan-19 @ 14:55 UTC (32 minutes ago) Visual Flight Rules
Wind Visibility Clouds
210° at 8 knots 10 miles
  • Clear skies
Temperatures Readings
Current -1°C / 30°F
Dewpoint -4°C / 25°F
Humidity 80%
Altimeter 29.69" Hg
Pressure 1005 hPa
Elevation 195
METAR KSLH 191455Z AUTO 21008KT 10SM CLR M01/M03 A2969 RMK AO2 T10121039
Observed Flight Rules
Jan-19 @ 14:55 UTC
(32 minutes ago)
VFR
Wind Visibility
210° at 8 knots 10 miles
Clouds
  • Clear skies
Temperature Dewpoint
-1°C / 30°F -4°C / 25°F
Humidity Altimeter Pressure
80% 29.69" Hg 1005 hPa